createdAt,value
2023-05-25T00:01:26.552Z,2.90
2023-05-25T00:04:05.453Z,2.50
2023-05-25T00:06:41.454Z,3.53
2023-05-25T00:09:13.709Z,3.13
2023-05-25T00:11:43.586Z,3.25
2023-05-25T00:14:16.438Z,4.03
2023-05-25T00:16:48.539Z,3.47
2023-05-25T00:19:18.851Z,3.07
2023-05-25T00:21:52.258Z,2.87
2023-05-25T00:24:22.166Z,2.87
2023-05-25T00:26:52.021Z,4.23
2023-05-25T00:29:21.840Z,4.03
2023-05-25T00:31:51.981Z,2.83
2023-05-25T00:34:22.108Z,4.03
2023-05-25T00:36:54.590Z,3.80
2023-05-25T00:39:24.600Z,4.00
2023-05-25T00:41:55.987Z,3.63
2023-05-25T00:44:25.871Z,4.00
2023-05-25T00:46:56.059Z,4.17
2023-05-25T00:49:26.019Z,4.20
2023-05-25T00:52:01.221Z,3.53
2023-05-25T00:54:33.742Z,4.00
2023-05-25T00:57:07.147Z,3.43
2023-05-25T00:59:43.515Z,4.57
2023-05-25T01:02:17.605Z,4.33
2023-05-25T01:04:52.759Z,3.60
2023-05-25T01:07:26.496Z,4.70
2023-05-25T01:10:01.839Z,4.80
2023-05-25T01:12:32.500Z,4.00
2023-05-25T01:15:04.881Z,4.40
2023-05-25T01:17:38.383Z,4.53
2023-05-25T01:20:11.948Z,4.47
2023-05-25T01:22:50.505Z,5.23
2023-05-25T01:25:30.656Z,5.63
2023-05-25T01:28:05.097Z,4.50
2023-05-25T01:30:36.199Z,4.83
2023-05-25T01:33:06.943Z,4.20
2023-05-25T01:35:42.519Z,4.13
2023-05-25T01:38:18.389Z,5.07
2023-05-25T01:40:51.129Z,4.93
2023-05-25T01:43:25.831Z,5.17
2023-05-25T01:46:01.607Z,4.67
2023-05-25T01:48:43.809Z,5.17
2023-05-25T01:51:29.481Z,4.83
2023-05-25T01:54:13.582Z,4.10
2023-05-25T01:56:49.976Z,6.00
2023-05-25T01:59:39.443Z,4.40
2023-05-25T02:02:17.553Z,5.10
2023-05-25T02:04:47.889Z,5.60
2023-05-25T02:09:51.536Z,5.40
2023-05-25T02:12:23.203Z,5.50
2023-05-25T02:14:53.087Z,6.10
2023-05-25T02:17:23.072Z,5.30
2023-05-25T02:19:56.690Z,6.17
2023-05-25T02:22:29.039Z,5.73
2023-05-25T02:25:04.268Z,5.50
2023-05-25T02:27:34.186Z,5.93
2023-05-25T02:30:05.984Z,5.30
2023-05-25T02:32:54.034Z,4.90
2023-05-25T02:35:26.136Z,5.83
2023-05-25T02:37:58.254Z,5.03
2023-05-25T03:14:25.584Z,5.30
2023-05-25T03:16:55.468Z,5.10
2023-05-25T03:19:25.336Z,5.60
2023-05-25T03:21:55.204Z,4.73
2023-05-25T03:24:25.108Z,6.03
2023-05-25T03:26:54.960Z,5.10
2023-05-25T03:29:27.486Z,5.10
2023-05-25T03:31:57.355Z,5.23
2023-05-25T03:34:27.392Z,4.60
2023-05-25T03:37:01.052Z,6.43
2023-05-25T03:39:30.906Z,5.97
2023-05-25T03:42:01.221Z,5.53
2023-05-25T03:44:33.683Z,5.60
2023-05-25T03:47:03.555Z,6.10
2023-05-25T03:49:33.572Z,5.70
2023-05-25T03:52:03.497Z,7.80
2023-05-25T03:54:33.358Z,6.03
2023-05-25T03:57:09.926Z,6.83
2023-05-25T03:59:42.425Z,7.10
2023-05-25T04:02:12.286Z,6.03
2023-05-25T04:04:45.577Z,6.37
2023-05-25T04:07:15.483Z,7.30
2023-05-25T04:09:45.355Z,6.50
2023-05-25T04:12:15.227Z,6.33
2023-05-25T04:14:47.682Z,5.90
2023-05-25T04:17:17.714Z,5.20
2023-05-25T04:19:47.609Z,4.43
2023-05-25T04:22:17.638Z,5.40
2023-05-25T04:24:47.981Z,5.80
2023-05-25T04:27:17.997Z,6.77
2023-05-25T04:29:50.914Z,5.37
2023-05-25T04:32:21.695Z,5.83
2023-05-25T04:34:51.614Z,5.70
2023-05-25T04:37:21.797Z,6.27
2023-05-25T04:39:51.831Z,5.93
2023-05-25T04:42:24.188Z,6.30
2023-05-25T04:44:56.660Z,5.47
2023-05-25T04:47:27.023Z,5.30
2023-05-25T04:49:56.904Z,4.60
2023-05-25T04:52:26.775Z,5.73
2023-05-25T04:54:56.682Z,5.13
2023-05-25T04:57:30.926Z,4.90
2023-05-25T05:00:03.505Z,4.60
2023-05-25T05:02:33.487Z,5.97
2023-05-25T05:05:04.094Z,5.07
2023-05-25T05:07:34.022Z,4.40
2023-05-25T05:10:03.867Z,5.03
2023-05-25T05:12:33.747Z,4.83
2023-05-25T05:15:06.545Z,4.93
2023-05-25T05:17:42.459Z,4.30
2023-05-25T05:20:15.295Z,4.50
2023-05-25T05:22:46.053Z,3.80
2023-05-25T05:25:15.929Z,4.73
2023-05-25T05:27:45.924Z,4.60
2023-05-25T05:30:19.201Z,4.80
2023-05-25T05:32:49.549Z,4.10
2023-05-25T05:35:19.751Z,3.83
2023-05-25T05:37:50.089Z,4.87
2023-05-25T05:40:20.116Z,4.67
2023-05-25T05:42:51.104Z,3.60
2023-05-25T05:45:23.586Z,3.53
2023-05-25T05:47:54.055Z,3.53
2023-05-25T05:50:24.447Z,3.27
2023-05-25T05:52:55.235Z,3.57
2023-05-25T05:55:25.186Z,4.40
2023-05-25T05:57:55.027Z,3.97
2023-05-25T06:00:27.846Z,4.10
2023-05-25T06:03:04.906Z,4.00
2023-05-25T06:05:34.908Z,3.65
2023-05-25T06:08:06.042Z,3.90
2023-05-25T06:10:36.197Z,3.83
2023-05-25T06:13:07.619Z,4.20
2023-05-25T06:15:40.870Z,3.97
2023-05-25T06:18:11.906Z,3.77
2023-05-25T06:20:42.163Z,3.23
2023-05-25T06:23:14.299Z,3.90
2023-05-25T06:25:46.890Z,4.20
2023-05-25T06:28:17.157Z,3.50
2023-05-25T06:30:49.651Z,3.07
2023-05-25T06:33:19.644Z,4.17
2023-05-25T06:35:51.049Z,3.20
2023-05-25T06:38:21.007Z,3.60
2023-05-25T06:40:50.813Z,3.53
2023-05-25T06:43:20.667Z,3.20
2023-05-25T06:45:54.733Z,3.42
2023-05-25T06:48:24.587Z,3.97
2023-05-25T06:50:54.457Z,3.90
2023-05-25T06:53:24.312Z,4.57
2023-05-25T06:55:54.210Z,4.23
2023-05-25T06:58:24.135Z,4.47
2023-05-25T07:00:57.745Z,5.23
2023-05-25T07:03:28.446Z,4.20
2023-05-25T07:05:58.520Z,4.20
2023-05-25T07:08:28.422Z,4.33
2023-05-25T07:10:58.299Z,3.80
2023-05-25T07:13:28.224Z,4.93
2023-05-25T07:16:00.721Z,3.60
2023-05-25T07:18:32.124Z,3.80
2023-05-25T07:21:02.372Z,4.20
2023-05-25T07:23:32.254Z,4.07
2023-05-25T07:26:04.211Z,4.43
2023-05-25T07:28:35.610Z,4.43
2023-05-25T07:31:09.720Z,4.43
2023-05-25T07:33:41.538Z,3.85
2023-05-25T07:36:12.787Z,4.13
2023-05-25T07:38:44.042Z,4.40
2023-05-25T07:41:14.904Z,4.50
2023-05-25T07:43:47.804Z,4.67
2023-05-25T07:46:25.460Z,4.65
2023-05-25T07:49:00.146Z,4.28
2023-05-25T07:51:35.994Z,4.90
2023-05-25T07:54:06.001Z,3.75
2023-05-25T07:56:35.918Z,3.50
2023-05-25T07:59:08.563Z,3.93
2023-05-25T08:01:41.072Z,4.25
2023-05-25T08:04:16.692Z,4.13
2023-05-25T08:06:53.243Z,4.10
2023-05-25T08:09:23.068Z,4.47
2023-05-25T08:12:07.710Z,4.07
2023-05-25T08:14:51.126Z,4.10
2023-05-25T08:17:23.939Z,3.87
2023-05-25T08:19:56.517Z,4.03
2023-05-25T08:22:29.266Z,4.50
2023-05-25T08:25:01.513Z,3.85
2023-05-25T08:27:33.492Z,4.82
2023-05-25T08:30:12.128Z,3.50
2023-05-25T08:32:46.838Z,3.60
2023-05-25T08:35:19.769Z,4.00
2023-05-25T08:37:49.732Z,3.90
2023-05-25T08:40:21.621Z,5.32
2023-05-25T08:42:54.211Z,3.88
2023-05-25T08:45:37.525Z,4.05
2023-05-25T08:48:31.751Z,4.32
2023-05-25T08:51:11.777Z,4.10
2023-05-25T08:53:43.739Z,3.90
2023-05-25T08:56:19.948Z,3.90
2023-05-25T08:59:01.091Z,4.00
2023-05-25T09:01:35.345Z,3.70
2023-05-25T09:04:14.330Z,4.28
2023-05-25T09:06:57.090Z,4.07
2023-05-25T09:09:32.718Z,3.88
2023-05-25T09:12:02.721Z,3.38
2023-05-25T09:14:32.807Z,3.80
2023-05-25T09:17:06.769Z,3.70
2023-05-25T09:19:39.607Z,3.53
2023-05-25T09:24:44.869Z,3.97
2023-05-25T09:27:18.404Z,4.07
2023-05-25T09:29:50.883Z,4.43
2023-05-25T09:32:21.879Z,4.07
2023-05-25T09:34:55.806Z,4.43
2023-05-25T09:37:26.232Z,4.83
2023-05-25T09:39:56.154Z,3.92
2023-05-25T09:42:26.407Z,4.05
2023-05-25T09:44:56.248Z,4.40
2023-05-25T09:47:26.137Z,3.85
2023-05-25T09:50:02.087Z,4.30
2023-05-25T09:52:31.912Z,4.80
2023-05-25T09:55:04.630Z,4.38
2023-05-25T09:57:34.533Z,5.20
2023-05-25T10:00:10.433Z,4.63
2023-05-25T10:02:41.456Z,4.15
2023-05-25T10:05:14.201Z,4.32
2023-05-25T10:07:49.326Z,4.40
2023-05-25T10:10:22.413Z,4.38
2023-05-25T10:12:55.903Z,4.57
2023-05-25T10:15:26.189Z,4.03
2023-05-25T10:17:57.998Z,3.73
2023-05-25T10:20:32.758Z,3.60
2023-05-25T10:23:08.205Z,4.50
2023-05-25T10:25:43.064Z,3.90
2023-05-25T10:28:20.322Z,4.50
2023-05-25T10:30:52.244Z,3.88
2023-05-25T10:33:24.058Z,4.07
2023-05-25T10:36:09.174Z,4.35
2023-05-25T10:38:47.885Z,3.85
2023-05-25T10:41:18.905Z,4.30
2023-05-25T10:43:55.485Z,4.33
2023-05-25T10:46:25.514Z,4.22
2023-05-25T10:49:00.914Z,4.47
2023-05-25T10:51:45.581Z,3.65
2023-05-25T10:54:19.115Z,4.32
2023-05-25T10:57:14.478Z,4.25
2023-05-25T10:59:51.133Z,4.05
2023-05-25T11:02:23.650Z,4.57
2023-05-25T11:04:53.827Z,4.05
2023-05-25T11:07:26.336Z,3.67
2023-05-25T11:10:01.773Z,3.25
2023-05-25T11:12:33.923Z,3.40
2023-05-25T11:15:17.571Z,3.25
2023-05-25T11:18:03.908Z,3.35
2023-05-25T11:20:38.317Z,4.25
2023-05-25T11:23:29.780Z,3.97
2023-05-25T11:26:08.224Z,3.73
2023-05-25T11:28:48.011Z,3.95
2023-05-25T11:31:18.005Z,4.63
2023-05-25T11:33:48.595Z,3.97
2023-05-25T11:36:20.672Z,4.20
2023-05-25T11:39:04.692Z,3.30
2023-05-25T11:41:43.806Z,4.20
2023-05-25T11:44:14.969Z,4.18
2023-05-25T11:46:49.928Z,3.95
2023-05-25T11:49:24.421Z,4.03
2023-05-25T11:51:56.975Z,4.35
2023-05-25T11:54:31.656Z,4.17
2023-05-25T11:57:02.903Z,4.28
2023-05-25T11:59:39.761Z,3.90
2023-05-25T12:02:09.752Z,4.40
2023-05-25T12:04:46.598Z,4.45
2023-05-25T12:07:16.487Z,4.82
2023-05-25T12:09:49.003Z,4.32
2023-05-25T12:12:19.734Z,3.88
2023-05-25T12:14:50.947Z,3.75
2023-05-25T12:17:21.959Z,3.88
2023-05-25T12:19:52.266Z,4.72
2023-05-25T12:22:22.962Z,4.60
2023-05-25T12:24:55.481Z,4.68
2023-05-25T12:27:26.035Z,4.65
2023-05-25T12:29:56.010Z,4.55
2023-05-25T12:32:25.950Z,4.85
2023-05-25T12:35:05.478Z,4.65
2023-05-25T12:37:36.199Z,5.72
2023-05-25T12:40:20.634Z,4.60
2023-05-25T12:42:59.091Z,4.53
2023-05-25T12:45:35.732Z,4.30
2023-05-25T12:48:05.687Z,4.88
2023-05-25T12:50:37.193Z,4.63
2023-05-25T12:53:07.661Z,4.20
2023-05-25T12:55:41.774Z,4.40
2023-05-25T12:58:31.195Z,4.50
2023-05-25T13:01:01.173Z,4.63
2023-05-25T13:03:32.686Z,4.38
2023-05-25T13:06:06.444Z,4.45
2023-05-25T13:08:36.378Z,3.80
2023-05-25T13:11:08.803Z,4.10
2023-05-25T13:13:38.658Z,4.25
2023-05-25T13:16:09.116Z,4.28
2023-05-25T13:18:39.028Z,4.47
2023-05-25T13:21:10.298Z,4.20
2023-05-25T13:23:40.203Z,5.00
2023-05-25T13:26:13.545Z,4.47
2023-05-25T13:28:43.690Z,5.00
2023-05-25T13:31:13.646Z,4.63
2023-05-25T13:33:43.527Z,4.65
2023-05-25T13:36:13.409Z,5.43
2023-05-25T13:38:43.262Z,5.18
2023-05-25T13:41:16.709Z,4.70
2023-05-25T13:43:46.656Z,4.90
2023-05-25T13:46:32.989Z,4.70
2023-05-25T13:49:04.399Z,5.43
2023-05-25T13:51:35.935Z,4.30
2023-05-25T13:54:05.932Z,4.65
2023-05-25T13:56:38.482Z,4.28
2023-05-25T13:59:08.360Z,4.72
2023-05-25T14:01:38.258Z,3.77
2023-05-25T14:04:11.979Z,4.23
2023-05-25T14:06:41.910Z,4.35
2023-05-25T14:09:13.579Z,4.10
2023-05-25T14:11:46.629Z,4.20
2023-05-25T14:14:29.990Z,4.30
2023-05-25T14:17:01.601Z,4.35
2023-05-25T14:19:33.847Z,4.67
2023-05-25T14:22:13.370Z,3.60
2023-05-25T14:24:49.809Z,4.57
2023-05-25T14:27:23.330Z,4.20
2023-05-25T14:29:58.083Z,4.28
2023-05-25T14:32:29.138Z,4.00
2023-05-25T14:35:10.419Z,3.77
2023-05-25T14:37:40.337Z,4.00
2023-05-25T14:40:11.537Z,4.57
2023-05-25T14:42:44.053Z,5.00
2023-05-25T14:45:16.124Z,6.20
2023-05-25T14:47:55.622Z,4.25
2023-05-25T14:50:34.165Z,3.73
2023-05-25T14:53:05.478Z,4.10
2023-05-25T14:55:35.342Z,4.45
2023-05-25T14:58:07.886Z,4.80
2023-05-25T15:00:37.922Z,4.40
2023-05-25T15:03:13.119Z,3.83
2023-05-25T15:05:43.933Z,4.20
2023-05-25T15:08:17.896Z,3.63
2023-05-25T15:10:47.845Z,4.13
2023-05-25T15:13:23.678Z,3.93
2023-05-25T15:15:57.909Z,4.27
2023-05-25T15:18:28.074Z,3.60
2023-05-25T15:21:00.307Z,3.88
2023-05-25T15:23:31.793Z,4.97
2023-05-25T15:26:04.480Z,4.70
2023-05-25T15:28:38.341Z,4.97
2023-05-25T15:31:11.363Z,4.70
2023-05-25T15:33:58.219Z,4.57
2023-05-25T15:36:33.235Z,4.53
2023-05-25T15:39:03.462Z,3.17
2023-05-25T15:41:45.012Z,4.37
2023-05-25T15:44:19.514Z,3.72
2023-05-25T15:46:50.595Z,4.27
2023-05-25T15:49:22.235Z,4.47
2023-05-25T15:51:53.539Z,4.07
2023-05-25T15:54:29.601Z,4.38
2023-05-25T15:57:08.609Z,4.43
2023-05-25T15:59:43.859Z,4.60
2023-05-25T16:02:16.923Z,4.05
2023-05-25T16:04:48.293Z,3.60
2023-05-25T16:07:25.583Z,4.37
2023-05-25T16:09:56.509Z,4.57
2023-05-25T16:12:28.696Z,4.07
2023-05-25T16:15:01.187Z,3.70
2023-05-25T16:17:35.774Z,4.35
2023-05-25T16:20:12.818Z,4.20
2023-05-25T16:22:42.757Z,3.53
2023-05-25T16:25:16.347Z,4.20
2023-05-25T16:27:50.966Z,4.33
2023-05-25T16:30:26.144Z,4.90
2023-05-25T16:32:59.449Z,4.28
2023-05-25T16:35:34.702Z,3.80
2023-05-25T16:38:06.861Z,4.88
2023-05-25T16:40:41.221Z,4.27
2023-05-25T16:43:11.147Z,4.60
2023-05-25T16:45:43.908Z,4.70
2023-05-25T16:48:15.606Z,3.80
2023-05-25T16:50:48.186Z,4.30
2023-05-25T16:53:20.897Z,4.03
2023-05-25T16:55:53.847Z,4.67
2023-05-25T16:58:24.963Z,4.13
2023-05-25T17:00:57.612Z,3.93
2023-05-25T17:03:35.645Z,3.70
2023-05-25T17:06:12.570Z,4.33
2023-05-25T17:09:03.872Z,4.90
2023-05-25T17:11:36.130Z,4.63
2023-05-25T17:14:06.199Z,5.33
2023-05-25T17:16:41.407Z,4.70
2023-05-25T17:19:15.380Z,4.80
2023-05-25T17:21:55.448Z,4.33
2023-05-25T17:24:25.272Z,4.27
2023-05-25T17:26:55.161Z,4.87
2023-05-25T17:29:26.650Z,4.33
2023-05-25T17:32:04.689Z,4.53
2023-05-25T17:34:34.693Z,4.67
2023-05-25T17:37:04.586Z,4.50
2023-05-25T17:39:37.909Z,4.37
2023-05-25T17:42:08.660Z,4.80
2023-05-25T17:44:42.724Z,4.50
2023-05-25T17:47:15.232Z,4.60
2023-05-25T17:50:03.485Z,4.50
2023-05-25T17:52:34.567Z,3.63
2023-05-25T17:55:09.701Z,4.30
2023-05-25T17:57:39.603Z,4.30
2023-05-25T18:00:13.632Z,3.97
2023-05-25T18:02:46.489Z,4.23
2023-05-25T18:05:16.392Z,4.33
2023-05-25T18:07:49.282Z,4.23
2023-05-25T18:10:25.570Z,4.63
2023-05-25T18:12:58.328Z,4.13
2023-05-25T18:15:35.771Z,4.33
2023-05-25T18:18:12.111Z,5.47
2023-05-25T18:20:42.866Z,3.77
2023-05-25T18:23:13.534Z,3.97
2023-05-25T18:25:43.487Z,4.97
2023-05-25T18:28:16.710Z,3.80
2023-05-25T18:30:49.381Z,4.23
2023-05-25T18:33:21.937Z,4.80
2023-05-25T18:35:51.805Z,3.67
2023-05-25T18:38:24.176Z,4.27
2023-05-25T18:40:56.505Z,4.10
2023-05-25T18:43:26.395Z,4.13
2023-05-25T18:45:56.339Z,4.13
2023-05-25T18:48:28.845Z,4.17
2023-05-25T18:51:03.308Z,4.20
2023-05-25T18:53:34.213Z,4.43
2023-05-25T18:56:06.436Z,3.43
2023-05-25T18:58:36.309Z,4.40
2023-05-25T19:01:16.097Z,4.40
2023-05-25T19:03:58.767Z,4.23
2023-05-25T19:06:33.749Z,5.30
2023-05-25T19:09:06.880Z,3.90
2023-05-25T19:11:40.128Z,3.87
2023-05-25T19:14:10.077Z,3.67
2023-05-25T19:16:42.693Z,4.20
2023-05-25T19:19:15.170Z,4.43
2023-05-25T19:21:49.451Z,4.20
2023-05-25T19:24:20.048Z,3.80
2023-05-25T19:26:50.078Z,4.80
2023-05-25T19:29:23.523Z,4.60
2023-05-25T19:31:54.774Z,4.30
2023-05-25T19:34:30.344Z,4.47
2023-05-25T19:37:10.596Z,4.30
2023-05-25T19:39:41.313Z,4.23
2023-05-25T19:42:18.731Z,4.27
2023-05-25T19:44:48.569Z,4.23
2023-05-25T19:47:18.456Z,4.67
2023-05-25T19:50:00.054Z,3.87
2023-05-25T19:52:31.012Z,5.13
2023-05-25T19:55:00.861Z,4.00
2023-05-25T19:57:33.365Z,4.50
2023-05-25T20:00:04.667Z,3.90
2023-05-25T20:02:41.782Z,4.07
2023-05-25T20:05:14.556Z,4.43
2023-05-25T20:07:47.603Z,4.33
2023-05-25T20:10:26.421Z,4.93
2023-05-25T20:13:00.828Z,4.67
2023-05-25T20:15:51.317Z,4.13
2023-05-25T20:18:21.262Z,3.77
2023-05-25T20:20:59.462Z,4.27
2023-05-25T20:23:30.504Z,4.60
2023-05-25T20:26:00.388Z,4.27
2023-05-25T20:28:30.237Z,4.80
2023-05-25T20:31:03.114Z,4.57
2023-05-25T20:33:33.066Z,4.63
2023-05-25T20:36:05.564Z,3.50
2023-05-25T20:38:35.385Z,4.87
2023-05-25T20:41:05.231Z,3.80
2023-05-25T20:43:38.229Z,4.73
2023-05-25T20:46:11.672Z,4.13
2023-05-25T20:48:45.901Z,4.30
2023-05-25T20:51:18.388Z,3.90
2023-05-25T20:53:49.587Z,3.70
2023-05-25T20:56:26.820Z,3.90
2023-05-25T21:13:41.244Z,4.73
2023-05-25T21:16:11.227Z,4.73
2023-05-25T21:18:41.117Z,3.90
2023-05-25T21:21:11.499Z,4.30
2023-05-25T21:23:41.677Z,4.13
2023-05-25T21:26:11.752Z,4.43
2023-05-25T21:28:46.555Z,4.23
2023-05-25T21:31:16.500Z,4.17
2023-05-25T21:33:47.598Z,4.10
2023-05-25T21:36:17.672Z,4.50
2023-05-25T21:38:47.641Z,4.83
2023-05-25T21:41:17.986Z,5.17
2023-05-25T21:43:51.074Z,5.10
2023-05-25T21:46:21.005Z,4.20
2023-05-25T21:48:50.943Z,4.07
2023-05-25T21:51:20.810Z,3.80
2023-05-25T21:53:50.822Z,4.87
2023-05-25T21:56:21.140Z,3.97
2023-05-25T21:58:53.681Z,4.67
2023-05-25T22:01:23.764Z,3.90
2023-05-25T22:03:53.871Z,5.10
2023-05-25T22:06:23.763Z,4.83
2023-05-25T22:08:53.679Z,4.30
2023-05-25T22:11:24.720Z,4.30
2023-05-25T22:13:57.815Z,4.57
2023-05-25T22:16:27.807Z,4.33
2023-05-25T22:19:02.249Z,4.47
2023-05-25T22:21:32.123Z,3.90
2023-05-25T22:24:02.366Z,5.00
2023-05-25T22:26:32.257Z,4.90
2023-05-25T22:29:04.787Z,4.10
2023-05-25T22:31:34.731Z,5.10
2023-05-25T22:34:05.461Z,4.63
2023-05-25T22:36:37.481Z,4.27
2023-05-25T22:39:07.584Z,4.70
2023-05-25T22:41:37.532Z,4.57
2023-05-25T22:44:10.195Z,4.17
2023-05-25T22:46:40.182Z,4.63
2023-05-25T22:49:10.148Z,4.67
2023-05-25T22:51:40.909Z,4.27
2023-05-25T22:54:10.765Z,6.03
2023-05-25T22:56:40.640Z,4.53
2023-05-25T22:59:13.111Z,4.73
2023-05-25T23:01:43.039Z,4.00
2023-05-25T23:04:13.149Z,4.73
2023-05-25T23:06:43.928Z,4.50
2023-05-25T23:09:13.972Z,4.70
2023-05-25T23:11:43.797Z,4.57
2023-05-25T23:14:21.604Z,4.33
2023-05-25T23:16:51.440Z,4.63
2023-05-25T23:19:21.334Z,4.63
2023-05-25T23:21:51.605Z,4.77
2023-05-25T23:24:21.473Z,4.40
2023-05-25T23:26:52.807Z,5.20
2023-05-25T23:29:25.289Z,4.33
2023-05-25T23:31:55.172Z,4.97
2023-05-25T23:34:25.782Z,4.33
2023-05-25T23:36:57.976Z,4.40
2023-05-25T23:39:28.003Z,4.90
2023-05-25T23:41:57.883Z,5.20
2023-05-25T23:44:30.313Z,6.13
2023-05-25T23:47:00.204Z,4.43
2023-05-25T23:49:30.061Z,5.00
2023-05-25T23:52:00.009Z,4.27
2023-05-25T23:54:29.891Z,4.30
2023-05-25T23:56:59.824Z,4.57
2023-05-25T23:59:34.575Z,4.50
